Alpine, Idaho
Current Conditions -  °F | °C
As of 6:07 AM on Saturday 25 Oct 2014 (Local Time) from KMYL Reporting Station
Haze Haze  
Wind Chill: 32°   Ceiling: 100
Heat Index: 32°   Visibility: 1.2mi
Dew Point: 31°   Wind: 0mph
Humidity: 96%   Direction: NA
Pressure: 29.89"   Gusts: NA
Location:  44.6782°N, 116.766°W
Report Text: KMYL 251207Z AUTO 00000KT 1 1/4SM BR OVC001 00/M01 A2989 RMK AO2 T00001006
Loading
Personal Weather Stations






























Interactive Weather Map New forecast layout! Learn more

10-Day Weather Forecast

Advertisements
Track Severe Weather on mobile